createdAt,value
2022-11-21T00:04:19.709Z,26.00
2022-11-21T00:09:26.140Z,28.26
2022-11-21T00:14:31.246Z,27.83
2022-11-21T00:19:36.503Z,27.30
2022-11-21T00:24:41.603Z,29.17
2022-11-21T00:29:46.940Z,29.43
2022-11-21T00:34:51.993Z,29.57
2022-11-21T00:39:57.516Z,31.63
2022-11-21T00:45:02.484Z,33.47
2022-11-21T00:50:07.791Z,34.70
2022-11-21T00:55:13.177Z,35.63
2022-11-21T01:00:19.928Z,35.00
2022-11-21T01:05:26.278Z,29.20
2022-11-21T01:10:31.895Z,30.63
2022-11-21T01:15:36.975Z,30.07
2022-11-21T01:20:42.766Z,33.37
2022-11-21T01:25:47.808Z,32.93
2022-11-21T01:30:53.061Z,31.27
2022-11-21T01:35:58.616Z,34.20
2022-11-21T01:41:03.963Z,22.27
2022-11-21T01:46:18.099Z,33.37
2022-11-21T01:51:28.970Z,31.33
2022-11-21T01:56:37.599Z,34.80
2022-11-21T02:01:44.700Z,34.35
2022-11-21T02:06:50.463Z,33.70
2022-11-21T02:11:59.327Z,34.00
2022-11-21T02:17:07.689Z,34.93
2022-11-21T02:22:16.533Z,31.07
2022-11-21T02:27:22.401Z,34.17
2022-11-21T02:32:36.521Z,34.17
2022-11-21T02:37:42.218Z,37.53
2022-11-21T02:42:59.336Z,33.83
2022-11-21T02:53:12.967Z,34.83
2022-11-21T02:58:18.625Z,33.13
2022-11-21T03:03:24.483Z,38.53
2022-11-21T03:08:30.064Z,35.00
2022-11-21T03:13:35.832Z,32.63
2022-11-21T03:18:41.070Z,33.83
2022-11-21T03:23:46.806Z,34.50
2022-11-21T03:28:52.423Z,35.80
2022-11-21T03:33:58.677Z,34.57
2022-11-21T03:39:04.905Z,38.73
2022-11-21T03:44:12.426Z,37.60
2022-11-21T03:49:18.252Z,38.28
2022-11-21T03:54:24.139Z,34.40
2022-11-21T03:59:29.796Z,37.13
2022-11-21T04:04:35.375Z,35.63
2022-11-21T04:09:40.515Z,37.90
2022-11-21T04:14:45.491Z,36.73
2022-11-21T04:19:51.749Z,38.83
2022-11-21T04:24:57.240Z,37.53
2022-11-21T04:30:02.295Z,37.60
2022-11-21T04:35:08.531Z,38.77
2022-11-21T04:40:14.018Z,40.00
2022-11-21T04:45:19.939Z,39.47
2022-11-21T04:50:26.118Z,39.65
2022-11-21T04:55:33.596Z,37.90
2022-11-21T05:00:38.919Z,37.10
2022-11-21T05:05:45.157Z,37.60
2022-11-21T05:11:08.956Z,37.50
2022-11-21T05:16:14.363Z,38.07
2022-11-21T05:21:19.311Z,38.37
2022-11-21T05:26:24.837Z,38.03
2022-11-21T05:31:30.054Z,37.77
2022-11-21T05:36:35.249Z,38.97
2022-11-21T05:41:40.435Z,37.78
2022-11-21T05:46:45.581Z,38.87
2022-11-21T05:51:51.642Z,38.20
2022-11-21T05:56:56.648Z,39.20
2022-11-21T06:02:19.885Z,38.47
2022-11-21T06:07:25.773Z,38.17
2022-11-21T06:12:30.805Z,37.53
2022-11-21T06:17:38.280Z,41.75
2022-11-21T06:22:43.381Z,38.87
2022-11-21T06:27:49.120Z,40.73
2022-11-21T06:32:54.655Z,39.97
2022-11-21T06:37:59.812Z,39.07
2022-11-21T06:43:07.630Z,39.33
2022-11-21T06:48:12.930Z,40.03
2022-11-21T06:53:18.077Z,40.60
2022-11-21T06:58:23.897Z,40.17
2022-11-21T07:03:29.067Z,40.12
2022-11-21T07:08:36.778Z,38.05
2022-11-21T07:13:44.416Z,39.15
2022-11-21T07:18:50.039Z,38.63
2022-11-21T07:23:55.134Z,38.83
2022-11-21T07:29:00.222Z,39.77
2022-11-21T07:34:05.129Z,40.43
2022-11-21T07:39:10.314Z,39.97
2022-11-21T07:44:15.829Z,41.57
2022-11-21T07:49:21.211Z,40.10
2022-11-21T07:54:26.510Z,40.20
2022-11-21T07:59:31.587Z,39.23
2022-11-21T08:04:38.641Z,39.40
2022-11-21T08:09:44.312Z,39.03
2022-11-21T08:14:49.509Z,38.98
2022-11-21T08:19:54.417Z,38.67
2022-11-21T08:24:59.605Z,39.23
2022-11-21T08:30:08.858Z,39.07
2022-11-21T08:35:13.876Z,39.10
2022-11-21T08:40:19.481Z,40.90
2022-11-21T08:45:27.144Z,40.90
2022-11-21T08:50:33.470Z,40.90
2022-11-21T08:55:38.832Z,41.85
2022-11-21T09:00:44.540Z,40.47
2022-11-21T09:05:49.628Z,40.00
2022-11-21T09:10:56.528Z,39.83
2022-11-21T09:16:20.763Z,40.73
2022-11-21T09:21:26.553Z,40.75
2022-11-21T09:26:32.545Z,40.45
2022-11-21T09:31:40.003Z,42.00
2022-11-21T09:36:45.208Z,40.23
2022-11-21T09:42:17.937Z,39.07
2022-11-21T09:47:34.198Z,42.67
2022-11-21T09:52:42.522Z,45.60
2022-11-21T09:57:49.676Z,42.17
2022-11-21T10:02:57.298Z,45.53
2022-11-21T10:08:06.384Z,47.47
2022-11-21T10:13:29.553Z,55.63
2022-11-21T10:18:52.718Z,55.38
2022-11-21T10:24:09.904Z,84.13
2022-11-21T10:29:36.197Z,62.73
2022-11-21T10:34:42.211Z,46.15
2022-11-21T10:39:50.666Z,41.17
2022-11-21T10:45:13.702Z,41.67
2022-11-21T10:50:27.221Z,41.17
2022-11-21T10:55:32.629Z,41.77
2022-11-21T11:00:38.450Z,42.57
2022-11-21T11:05:47.104Z,41.33
2022-11-21T11:11:09.072Z,43.20
2022-11-21T11:16:19.737Z,49.90
2022-11-21T11:21:31.172Z,45.77
2022-11-21T11:26:38.344Z,44.05
2022-11-21T11:31:58.141Z,41.97
2022-11-21T11:37:06.329Z,40.77
2022-11-21T11:42:41.307Z,41.23
2022-11-21T11:47:55.677Z,41.10
2022-11-21T11:53:21.162Z,39.37
2022-11-21T11:58:47.938Z,40.47
2022-11-21T12:03:59.034Z,39.90
2022-11-21T12:09:28.406Z,40.90
2022-11-21T12:15:28.463Z,40.23
2022-11-21T12:21:01.535Z,41.08
2022-11-21T12:26:29.816Z,40.50
2022-11-21T12:31:49.724Z,40.67
2022-11-21T12:36:58.986Z,40.43
2022-11-21T12:42:27.664Z,40.07
2022-11-21T12:48:13.220Z,40.45
2022-11-21T12:53:47.967Z,41.27
2022-11-21T12:58:54.888Z,40.10
2022-11-21T13:04:08.531Z,42.17
2022-11-21T13:09:19.390Z,42.10
2022-11-21T13:14:27.880Z,41.83
2022-11-21T13:19:36.496Z,41.37
2022-11-21T13:24:51.154Z,42.40
2022-11-21T13:30:12.346Z,41.90
2022-11-21T13:35:26.035Z,41.73
2022-11-21T13:40:36.920Z,41.80
2022-11-21T13:45:48.960Z,44.13
2022-11-21T13:50:56.933Z,41.73
2022-11-21T13:56:13.970Z,43.73
2022-11-21T14:01:33.591Z,40.30
2022-11-21T14:06:44.923Z,47.10
2022-11-21T14:12:08.952Z,42.17
2022-11-21T14:17:33.837Z,41.57
2022-11-21T14:22:46.032Z,41.73
2022-11-21T14:27:55.560Z,40.63
2022-11-21T14:33:30.364Z,42.27
2022-11-21T14:38:50.931Z,41.73
2022-11-21T14:44:03.309Z,46.43
2022-11-21T14:49:18.106Z,40.97
2022-11-21T14:54:29.462Z,40.83
2022-11-21T14:59:42.383Z,41.47
2022-11-21T15:04:49.826Z,41.27
2022-11-21T15:15:18.074Z,45.17
2022-11-21T15:20:23.578Z,45.03
2022-11-21T15:25:34.777Z,43.10
2022-11-21T15:30:40.247Z,41.77
2022-11-21T15:35:56.476Z,45.27
2022-11-21T15:41:12.434Z,44.73
2022-11-21T15:46:22.674Z,45.63
2022-11-21T15:52:00.030Z,45.70
2022-11-21T16:01:49.733Z,43.30
2022-11-21T16:06:57.492Z,43.97
2022-11-21T16:12:03.793Z,46.27
2022-11-21T16:17:08.951Z,47.97
2022-11-21T16:22:14.454Z,49.37
2022-11-21T16:27:19.812Z,59.50
2022-11-21T16:32:27.073Z,57.73
2022-11-21T16:37:35.126Z,51.40
2022-11-21T16:42:40.797Z,51.63
2022-11-21T16:47:48.929Z,53.55
2022-11-21T16:57:59.239Z,68.73
2022-11-21T17:03:05.608Z,68.33
2022-11-21T17:08:10.795Z,70.62
2022-11-21T17:13:16.500Z,56.80
2022-11-21T17:18:23.726Z,61.57
2022-11-21T17:23:32.542Z,58.15
2022-11-21T17:28:42.315Z,68.33
2022-11-21T17:33:47.169Z,59.83
2022-11-21T17:38:54.121Z,55.87
2022-11-21T17:44:01.575Z,51.80
2022-11-21T17:49:06.547Z,50.97
2022-11-21T17:54:14.139Z,47.43
2022-11-21T17:59:19.726Z,50.97
2022-11-21T18:04:24.743Z,46.97
2022-11-21T18:09:30.188Z,48.33
2022-11-21T18:14:35.905Z,47.47
2022-11-21T18:19:41.369Z,47.33
2022-11-21T18:29:52.609Z,45.53
2022-11-21T18:34:57.796Z,47.30
2022-11-21T18:40:03.224Z,58.87
2022-11-21T18:45:09.500Z,53.83
2022-11-21T18:50:15.459Z,31.50
2022-11-21T18:55:22.129Z,45.67
2022-11-21T19:00:27.325Z,48.77
2022-11-21T19:05:32.880Z,44.48
2022-11-21T19:10:43.459Z,46.07
2022-11-21T19:15:45.650Z,45.67
2022-11-21T19:20:50.624Z,48.37
2022-11-21T19:26:11.422Z,56.73
2022-11-21T19:31:18.458Z,44.43
2022-11-21T19:36:24.595Z,41.30
2022-11-21T19:41:31.071Z,43.17
2022-11-21T19:46:39.319Z,45.48
2022-11-21T19:51:44.770Z,42.65
2022-11-21T19:56:50.142Z,41.33
2022-11-21T20:01:55.359Z,39.33
2022-11-21T20:07:06.287Z,43.27
2022-11-21T20:12:07.874Z,45.97
2022-11-21T20:17:13.916Z,73.85
2022-11-21T20:22:19.570Z,60.20
2022-11-21T20:27:24.792Z,64.97
2022-11-21T20:32:33.073Z,58.27
2022-11-21T20:37:38.933Z,52.40
2022-11-21T20:42:44.822Z,48.30
2022-11-21T20:47:50.160Z,42.10
2022-11-21T20:53:50.096Z,32.57
2022-11-21T20:58:02.704Z,39.70
2022-11-21T21:03:08.219Z,48.97
2022-11-21T21:08:13.790Z,51.00
2022-11-21T21:13:19.672Z,44.57
2022-11-21T21:18:25.278Z,49.93
2022-11-21T21:23:30.354Z,54.40
2022-11-21T21:28:35.632Z,49.83
2022-11-21T21:33:42.669Z,45.60
2022-11-21T21:38:54.954Z,54.25
2022-11-21T21:44:00.091Z,46.97
2022-11-21T21:49:05.277Z,39.77
2022-11-21T21:54:16.641Z,40.87
2022-11-21T21:59:21.835Z,49.17
2022-11-21T22:04:27.927Z,48.80
2022-11-21T22:14:38.400Z,44.13
2022-11-21T22:19:43.295Z,48.20
2022-11-21T22:24:48.553Z,44.17
2022-11-21T22:29:53.490Z,43.97
2022-11-21T22:34:59.123Z,42.00
2022-11-21T22:40:04.783Z,42.70
2022-11-21T22:45:10.855Z,43.77
2022-11-21T22:50:16.335Z,43.13
2022-11-21T22:55:21.981Z,41.60
2022-11-21T23:00:26.867Z,40.77
2022-11-21T23:05:31.931Z,43.57
2022-11-21T23:10:38.157Z,39.07
2022-11-21T23:20:47.827Z,41.23
2022-11-21T23:25:53.314Z,42.93
2022-11-21T23:30:58.489Z,40.78
2022-11-21T23:36:03.391Z,42.20
2022-11-21T23:41:08.460Z,42.07
2022-11-21T23:46:13.723Z,39.80
2022-11-21T23:51:19.639Z,39.23
2022-11-21T23:56:25.594Z,37.93
